Time;durP1;ratioP1;P1;durP2;ratioP2;P2;SDS_P1;SDS_P2;PMS_P1;PMS_P2;Temp;Humidity;BMP_temperature;BMP_pressure;BME280_temperature;BME280_humidity;BME280_pressure;Samples;Min_cycle;Max_cycle;Signal;HPM_P1;HPM_P2
2021/04/16 00:00:23;;;;;;;4.43;2.80;;;6.60;56.20;;;;;;5052663;28;20184;-85
2021/04/16 00:02:49;;;;;;;4.23;2.90;;;6.70;56.20;;;;;;5053119;28;20161;-85
2021/04/16 00:05:15;;;;;;;3.57;3.13;;;6.80;56.40;;;;;;5052361;28;20219;-85
2021/04/16 00:07:41;;;;;;;3.87;3.13;;;7.00;55.60;;;;;;5038976;28;20652;-85
2021/04/16 00:10:13;;;;;;;5.57;3.30;;;6.90;55.40;;;;;;5038329;28;20211;-85
2021/04/16 00:12:39;;;;;;;4.83;3.40;;;6.80;55.60;;;;;;5057039;28;20172;-85
2021/04/16 00:15:10;;;;;;;4.70;3.27;;;6.80;55.80;;;;;;5056568;28;20268;-85
2021/04/16 00:17:36;;;;;;;3.47;3.17;;;6.80;55.70;;;;;;5057028;28;20183;-85
2021/04/16 00:20:03;;;;;;;3.67;3.00;;;6.70;56.40;;;;;;5057095;28;20168;-86
2021/04/16 00:22:29;;;;;;;4.13;3.00;;;6.40;56.80;;;;;;5056353;28;20184;-85
2021/04/16 00:24:54;;;;;;;3.40;3.10;;;6.30;57.50;;;;;;5056954;28;20203;-85
2021/04/16 00:27:20;;;;;;;4.60;3.20;;;6.30;58.10;;;;;;5056320;28;20176;-85
2021/04/16 00:29:45;;;;;;;4.03;3.10;;;6.50;57.60;;;;;;5057801;28;20264;-85
2021/04/16 00:32:11;;;;;;;3.47;2.80;;;6.50;57.80;;;;;;5056295;28;20177;-85
2021/04/16 00:34:37;;;;;;;3.23;2.93;;;6.60;56.70;;;;;;5056216;28;20208;-85
2021/04/16 00:37:03;;;;;;;3.73;3.33;;;6.70;56.40;;;;;;5055983;28;20183;-85
2021/04/16 00:39:28;;;;;;;3.30;2.97;;;6.90;56.30;;;;;;5038836;28;20180;-85
2021/04/16 00:41:54;;;;;;;5.13;3.33;;;6.90;56.60;;;;;;5056244;28;20193;-85
2021/04/16 00:44:20;;;;;;;3.40;3.10;;;6.70;55.00;;;;;;5055946;28;20197;-85
2021/04/16 00:46:48;;;;;;;2.70;2.50;;;6.60;55.60;;;;;;5058687;28;20546;-85
2021/04/16 00:49:29;;;;;;;4.70;2.97;;;6.40;56.50;;;;;;5043147;28;20188;-85
2021/04/16 00:51:58;;;;;;;3.17;2.80;;;6.40;54.60;;;;;;5061162;28;20172;-85
2021/04/16 00:54:36;;;;;;;2.90;2.67;;;6.30;56.10;;;;;;5059344;28;20184;-85
2021/04/16 00:57:04;;;;;;;5.10;2.77;;;6.30;55.90;;;;;;5060297;28;20358;-85
2021/04/16 00:59:32;;;;;;;2.70;2.50;;;6.50;56.40;;;;;;5060613;28;20203;-85
2021/04/16 01:02:00;;;;;;;3.60;3.10;;;6.60;56.20;;;;;;5059680;28;20202;-85
2021/04/16 01:04:27;;;;;;;2.67;2.47;;;6.70;55.80;;;;;;5060206;28;20218;-84
2021/04/16 01:06:53;;;;;;;3.53;2.60;;;6.80;55.60;;;;;;5059496;28;20176;-85
2021/04/16 01:09:19;;;;;;;3.30;3.00;;;7.00;55.00;;;;;;5062086;28;20234;-85
2021/04/16 01:11:45;;;;;;;3.17;2.73;;;6.90;55.10;;;;;;5064392;28;20187;-84
2021/04/16 01:14:12;;;;;;;4.03;3.07;;;6.80;54.30;;;;;;5062475;28;20187;-84
2021/04/16 01:16:38;;;;;;;3.17;2.57;;;6.70;54.30;;;;;;5059037;28;20259;-85
2021/04/16 01:19:23;;;;;;;2.77;2.50;;;6.80;54.80;;;;;;5059185;28;20630;-85
2021/04/16 01:22:02;;;;;;;2.57;2.37;;;6.90;54.50;;;;;;5059838;28;20244;-85
2021/04/16 01:24:30;;;;;;;2.90;2.53;;;7.00;53.80;;;;;;5058742;28;20169;-85
2021/04/16 01:26:57;;;;;;;2.60;2.40;;;7.00;53.50;;;;;;5059272;28;20178;-85
2021/04/16 01:29:24;;;;;;;3.23;2.77;;;7.00;53.80;;;;;;5058608;28;20648;-84
2021/04/16 01:31:51;;;;;;;3.70;2.60;;;6.80;55.10;;;;;;5041358;28;20181;-85
2021/04/16 01:34:26;;;;;;;2.60;2.40;;;6.60;56.30;;;;;;5061838;28;20176;-85
2021/04/16 01:36:53;;;;;;;2.67;2.47;;;6.40;56.00;;;;;;5062919;28;20257;-84
2021/04/16 01:39:21;;;;;;;3.33;2.80;;;6.30;56.20;;;;;;5044994;28;20187;-85
2021/04/16 01:41:47;;;;;;;2.90;2.60;;;6.40;55.80;;;;;;5065877;28;20224;-84
2021/04/16 01:44:19;;;;;;;3.13;2.73;;;6.40;56.00;;;;;;5067232;28;20195;-84
2021/04/16 01:47:06;;;;;;;3.33;2.40;;;6.50;56.00;;;;;;5065362;28;20200;-85
2021/04/16 01:49:37;;;;;;;3.03;2.73;;;6.60;55.70;;;;;;5066309;28;20176;-84
2021/04/16 01:52:05;;;;;;;3.17;2.87;;;6.70;55.60;;;;;;5065694;28;20165;-83
2021/04/16 01:54:39;;;;;;;5.10;2.67;;;6.70;55.10;;;;;;5065510;28;20179;-84
2021/04/16 01:57:09;;;;;;;3.27;2.60;;;6.70;55.40;;;;;;5061471;28;20172;-85
2021/04/16 01:59:37;;;;;;;4.20;2.40;;;6.50;55.50;;;;;;5038495;28;20232;-84
2021/04/16 02:02:05;;;;;;;2.87;2.37;;;6.40;56.10;;;;;;5039006;28;20180;-85
2021/04/16 02:04:31;;;;;;;4.13;2.57;;;6.20;56.80;;;;;;5037380;28;20184;-84
2021/04/16 02:06:57;;;;;;;4.53;2.73;;;6.00;57.10;;;;;;5074298;28;20204;-84
2021/04/16 02:09:26;;;;;;;2.77;2.37;;;5.90;56.30;;;;;;5073708;28;20175;-85
2021/04/16 02:11:52;;;;;;;2.40;2.20;;;6.00;56.30;;;;;;5064218;28;20271;-85
2021/04/16 02:14:22;;;;;;;2.77;2.40;;;6.10;55.80;;;;;;5060107;28;20231;-85
2021/04/16 02:16:51;;;;;;;2.57;2.37;;;6.10;56.30;;;;;;5058762;28;20645;-85
2021/04/16 02:19:18;;;;;;;2.57;2.03;;;6.20;55.60;;;;;;5058680;28;20726;-86
2021/04/16 02:21:44;;;;;;;2.50;2.30;;;6.20;54.70;;;;;;5066535;28;20172;-85
2021/04/16 02:24:11;;;;;;;2.53;2.33;;;5.90;54.60;;;;;;5063399;28;20191;-85
2021/04/16 02:26:38;;;;;;;3.20;2.30;;;5.90;55.40;;;;;;5061993;28;20672;-84
2021/04/16 02:29:08;;;;;;;3.80;2.47;;;5.90;55.50;;;;;;5059899;28;20192;-85
2021/04/16 02:31:34;;;;;;;2.87;2.33;;;5.90;55.20;;;;;;5059360;28;20199;-85
2021/04/16 02:34:00;;;;;;;3.43;2.83;;;6.00;55.90;;;;;;5060112;28;20235;-85
2021/04/16 02:36:26;;;;;;;4.93;2.33;;;6.00;56.00;;;;;;5059460;28;20807;-85
2021/04/16 02:38:56;;;;;;;3.57;2.23;;;6.10;56.50;;;;;;5058662;28;20264;-85
2021/04/16 02:41:22;;;;;;;2.87;2.57;;;6.10;56.30;;;;;;5059970;28;20278;-85
2021/04/16 02:43:49;;;;;;;3.43;2.60;;;6.10;56.40;;;;;;5059190;28;20251;-85
2021/04/16 02:46:15;;;;;;;2.93;2.60;;;6.10;55.40;;;;;;5059060;28;20859;-84
2021/04/16 02:48:41;;;;;;;4.53;2.90;;;6.00;57.10;;;;;;5059300;28;20184;-85
2021/04/16 02:51:07;;;;;;;3.00;2.80;;;6.10;56.60;;;;;;5059285;28;20216;-85
2021/04/16 02:53:33;;;;;;;2.63;2.43;;;6.00;58.00;;;;;;5058770;28;20185;-85
2021/04/16 02:55:58;;;;;;;2.43;2.00;;;6.00;57.70;;;;;;5059347;28;20203;-85
2021/04/16 02:58:25;;;;;;;2.53;2.33;;;6.00;57.80;;;;;;5059185;28;20205;-85
2021/04/16 03:00:51;;;;;;;2.93;2.20;;;6.00;57.70;;;;;;5058423;28;20176;-85
2021/04/16 03:03:17;;;;;;;4.13;2.60;;;6.00;58.30;;;;;;5059197;28;20179;-85
2021/04/16 03:05:42;;;;;;;2.90;2.60;;;6.00;58.00;;;;;;5057940;28;20552;-85
2021/04/16 03:08:08;;;;;;;2.57;2.37;;;6.10;57.60;;;;;;5058268;28;20172;-85
2021/04/16 03:10:36;;;;;;;2.77;2.30;;;6.10;57.50;;;;;;5063097;28;20176;-84
2021/04/16 03:13:02;;;;;;;3.10;2.60;;;6.20;56.90;;;;;;5055226;28;20200;-84
2021/04/16 03:15:28;;;;;;;3.17;2.50;;;6.20;57.10;;;;;;5036412;28;20200;-85
2021/04/16 03:17:54;;;;;;;2.63;2.43;;;6.20;56.70;;;;;;5056400;28;20255;-85
2021/04/16 03:20:22;;;;;;;3.13;2.67;;;6.20;56.90;;;;;;5047323;28;20184;-85
2021/04/16 03:22:48;;;;;;;4.13;2.67;;;6.20;56.70;;;;;;5065801;28;20188;-84
2021/04/16 03:25:14;;;;;;;3.03;2.50;;;6.20;56.90;;;;;;5060998;28;20215;-84
2021/04/16 03:27:41;;;;;;;3.00;2.47;;;6.20;56.80;;;;;;5057174;28;20600;-85
2021/04/16 03:30:12;;;;;;;2.90;2.33;;;6.20;57.00;;;;;;5056858;28;20552;-84
2021/04/16 03:32:37;;;;;;;4.27;2.90;;;6.30;57.00;;;;;;5056941;28;20188;-85
2021/04/16 03:35:03;;;;;;;4.17;2.80;;;6.30;56.60;;;;;;5056059;28;20226;-85
2021/04/16 03:37:29;;;;;;;4.00;2.60;;;6.30;56.20;;;;;;5054556;28;20211;-85
2021/04/16 03:39:55;;;;;;;2.80;2.60;;;6.30;56.30;;;;;;5055442;28;20196;-85
2021/04/16 03:42:20;;;;;;;3.87;2.60;;;6.30;56.20;;;;;;5055263;28;20541;-84
2021/04/16 03:44:46;;;;;;;2.70;2.50;;;6.40;56.10;;;;;;5057836;28;20274;-84
2021/04/16 03:47:12;;;;;;;3.47;2.53;;;6.40;56.10;;;;;;5058339;28;20181;-85
2021/04/16 03:49:37;;;;;;;3.30;2.90;;;6.30;56.10;;;;;;5058644;28;20168;-84
2021/04/16 03:52:04;;;;;;;2.90;2.60;;;6.30;56.50;;;;;;5058673;28;20212;-85
2021/04/16 03:54:30;;;;;;;2.83;2.63;;;6.30;56.70;;;;;;5057937;28;20233;-85
2021/04/16 03:56:56;;;;;;;3.33;3.03;;;6.10;57.50;;;;;;5058559;28;20184;-86
2021/04/16 03:59:23;;;;;;;4.20;2.30;;;6.10;57.40;;;;;;5058302;28;20335;-85
2021/04/16 04:01:50;;;;;;;4.83;2.80;;;6.10;57.30;;;;;;5056416;28;20185;-85
2021/04/16 04:04:17;;;;;;;2.67;2.47;;;6.10;57.10;;;;;;5058588;28;20179;-84
2021/04/16 04:06:42;;;;;;;2.80;2.60;;;6.10;57.40;;;;;;5058915;28;20598;-85
2021/04/16 04:09:09;;;;;;;2.40;2.20;;;6.00;57.50;;;;;;5057947;28;20180;-86
2021/04/16 04:11:34;;;;;;;4.23;3.10;;;6.10;57.40;;;;;;5057976;28;20200;-87
2021/04/16 04:14:01;;;;;;;3.73;2.67;;;6.10;57.40;;;;;;5059406;28;20176;-87
2021/04/16 04:16:27;;;;;;;2.70;2.50;;;6.00;57.60;;;;;;5056846;28;20643;-87
2021/04/16 04:18:54;;;;;;;3.43;2.63;;;6.00;57.50;;;;;;5058479;28;20184;-86
2021/04/16 04:21:20;;;;;;;5.27;3.40;;;6.00;58.00;;;;;;5058007;28;20178;-87
2021/04/16 04:23:45;;;;;;;4.33;3.07;;;5.90;58.00;;;;;;5054407;28;20184;-86
2021/04/16 04:26:11;;;;;;;4.33;2.93;;;5.90;58.00;;;;;;5054035;28;20208;-86
2021/04/16 04:28:37;;;;;;;3.33;2.93;;;5.90;57.90;;;;;;5055938;28;20195;-85
2021/04/16 04:31:02;;;;;;;3.43;2.90;;;5.80;58.00;;;;;;5056403;28;20695;-86
2021/04/16 04:33:28;;;;;;;4.13;3.10;;;5.80;58.20;;;;;;5055695;28;20207;-87
2021/04/16 04:35:54;;;;;;;6.57;3.57;;;5.70;58.20;;;;;;5058279;28;20208;-87
2021/04/16 04:38:19;;;;;;;3.90;3.47;;;5.70;58.20;;;;;;5054953;28;20173;-87
2021/04/16 04:40:46;;;;;;;4.07;3.40;;;5.80;58.20;;;;;;5074693;28;20224;-86
2021/04/16 04:43:12;;;;;;;3.60;3.30;;;5.70;58.10;;;;;;5057571;28;20196;-87
2021/04/16 04:45:38;;;;;;;4.13;3.57;;;5.60;58.30;;;;;;5058329;28;20575;-86
2021/04/16 04:48:05;;;;;;;4.03;3.63;;;5.60;58.60;;;;;;5043644;28;20216;-86
2021/04/16 04:50:31;;;;;;;3.83;3.43;;;5.60;58.50;;;;;;5035976;28;20177;-88
2021/04/16 04:52:57;;;;;;;4.07;3.67;;;5.60;58.60;;;;;;5053350;28;20280;-86
2021/04/16 04:55:32;;;;;;;4.07;3.70;;;5.60;58.70;;;;;;5052825;28;20242;-87
2021/04/16 04:57:58;;;;;;;4.40;3.57;;;5.70;58.40;;;;;;5054593;28;20180;-87
2021/04/16 05:00:25;;;;;;;4.17;3.40;;;5.70;58.40;;;;;;5066559;28;20180;-87
2021/04/16 05:02:51;;;;;;;3.80;3.33;;;5.80;58.00;;;;;;5070333;28;20168;-87
2021/04/16 05:05:19;;;;;;;4.20;3.77;;;5.80;57.70;;;;;;5039664;28;20681;-88
2021/04/16 05:07:44;;;;;;;3.93;3.30;;;5.90;57.90;;;;;;5055500;28;20207;-88
2021/04/16 05:10:12;;;;;;;4.33;3.90;;;5.90;57.70;;;;;;5053993;28;20656;-85
2021/04/16 05:12:38;;;;;;;4.17;3.47;;;5.80;57.70;;;;;;5053156;28;20180;-87
2021/04/16 05:15:05;;;;;;;4.17;3.43;;;5.90;58.10;;;;;;5052355;28;20219;-88
2021/04/16 05:17:31;;;;;;;4.77;3.50;;;5.80;58.30;;;;;;5053408;28;20188;-88
2021/04/16 05:19:57;;;;;;;3.90;3.50;;;5.80;58.60;;;;;;5052550;28;20188;-86
2021/04/16 05:22:22;;;;;;;3.97;3.57;;;5.80;59.00;;;;;;5053931;28;20663;-86
2021/04/16 05:24:48;;;;;;;4.20;3.67;;;5.80;59.30;;;;;;5053728;28;20227;-88
2021/04/16 05:27:20;;;;;;;11.03;10.03;;;5.60;59.50;;;;;;5026390;28;20191;-87
2021/04/16 05:29:47;;;;;;;4.50;4.10;;;5.70;60.50;;;;;;5054962;28;20267;-87
2021/04/16 05:32:13;;;;;;;3.87;3.47;;;5.70;60.30;;;;;;5052102;28;20202;-87
2021/04/16 05:34:42;;;;;;;4.40;3.97;;;5.80;60.40;;;;;;5048800;28;20204;-87
2021/04/16 05:37:09;;;;;;;4.40;4.00;;;5.80;60.60;;;;;;5034269;28;20672;-87
2021/04/16 05:39:35;;;;;;;6.07;4.10;;;5.70;60.10;;;;;;5034440;28;20188;-87
2021/04/16 05:42:00;;;;;;;4.23;3.47;;;5.60;60.10;;;;;;5000304;28;20235;-87
2021/04/16 05:44:26;;;;;;;4.30;3.90;;;5.60;60.30;;;;;;5034840;28;20188;-86
2021/04/16 05:46:52;;;;;;;4.47;3.60;;;5.70;60.30;;;;;;5030024;28;20209;-87
2021/04/16 05:49:17;;;;;;;4.17;3.77;;;5.70;60.60;;;;;;5052610;28;20192;-86
2021/04/16 05:51:43;;;;;;;4.67;4.23;;;5.70;59.70;;;;;;5051989;28;20202;-86
2021/04/16 05:54:10;;;;;;;4.83;3.67;;;5.70;59.40;;;;;;5052035;28;20195;-87
2021/04/16 05:56:36;;;;;;;6.27;3.93;;;5.80;58.90;;;;;;5051138;28;20587;-87
2021/04/16 05:59:03;;;;;;;4.63;3.77;;;5.90;58.50;;;;;;5051857;28;20188;-87
2021/04/16 06:01:28;;;;;;;5.93;3.83;;;5.90;58.30;;;;;;5050916;28;20207;-87
2021/04/16 06:03:54;;;;;;;5.87;3.97;;;6.00;58.10;;;;;;5033592;28;20574;-86
2021/04/16 06:06:20;;;;;;;4.27;3.87;;;5.90;58.50;;;;;;5051394;28;20268;-87
2021/04/16 06:08:46;;;;;;;6.40;4.13;;;5.90;58.40;;;;;;5051858;28;20664;-86
2021/04/16 06:11:12;;;;;;;3.70;3.40;;;5.90;58.30;;;;;;5051566;28;20212;-87
2021/04/16 06:13:38;;;;;;;3.53;3.23;;;5.80;58.90;;;;;;5051110;28;20825;-87
2021/04/16 06:16:05;;;;;;;3.77;3.10;;;5.60;63.40;;;;;;5050322;28;20263;-87
2021/04/16 06:18:30;;;;;;;4.30;3.57;;;5.60;63.40;;;;;;5051731;28;20185;-86
2021/04/16 06:20:56;;;;;;;4.63;3.93;;;5.50;63.40;;;;;;5047290;28;20262;-87
2021/04/16 06:23:22;;;;;;;5.10;3.73;;;5.50;64.10;;;;;;5041171;28;20200;-87
2021/04/16 06:25:48;;;;;;;4.17;3.77;;;5.50;63.90;;;;;;5047137;28;20710;-87
2021/04/16 06:28:15;;;;;;;7.93;4.00;;;5.40;64.50;;;;;;5051076;28;20188;-86
2021/04/16 06:30:42;;;;;;;4.60;3.53;;;5.40;63.70;;;;;;5050947;28;20203;-87
2021/04/16 06:33:17;;;;;;;5.90;3.53;;;5.40;65.50;;;;;;5050523;28;20188;-87
2021/04/16 06:35:48;;;;;;;3.70;3.40;;;5.30;66.70;;;;;;5046421;28;20215;-88
2021/04/16 06:38:16;;;;;;;4.03;3.57;;;5.40;65.00;;;;;;5050585;28;20181;-87
2021/04/16 06:40:45;;;;;;;7.00;4.33;;;5.40;64.60;;;;;;5046628;28;20222;-87
2021/04/16 06:43:10;;;;;;;5.23;4.40;;;5.50;64.90;;;;;;5046157;28;20698;-87
2021/04/16 06:45:36;;;;;;;5.50;4.20;;;5.60;64.10;;;;;;5049518;28;20224;-87
2021/04/16 06:48:07;;;;;;;7.20;4.10;;;5.50;63.60;;;;;;5020806;28;20181;-87
2021/04/16 06:53:13;;;;;;;4.57;4.13;;;5.60;63.60;;;;;;5474115;22;20279;-89
2021/04/16 06:56:00;;;;;;;5.63;5.13;;;5.60;63.20;;;;;;5048374;28;20189;-88
2021/04/16 06:58:45;;;;;;;6.07;4.50;;;5.70;63.20;;;;;;5045969;28;20224;-89
2021/04/16 07:01:24;;;;;;;6.23;4.00;;;5.50;63.30;;;;;;5043772;28;20235;-89
2021/04/16 07:04:15;;;;;;;6.93;4.43;;;5.50;62.80;;;;;;5043994;28;20204;-88
2021/04/16 07:06:41;;;;;;;4.27;3.87;;;5.70;62.40;;;;;;5041537;28;20350;-87
2021/04/16 07:09:23;;;;;;;4.77;4.37;;;5.70;61.90;;;;;;5041751;28;20188;-88
2021/04/16 07:12:06;;;;;;;4.03;3.70;;;5.70;61.90;;;;;;5032613;28;20189;-87
2021/04/16 07:14:41;;;;;;;5.10;4.17;;;5.80;61.80;;;;;;5034919;28;20387;-88
2021/04/16 07:17:10;;;;;;;5.37;4.20;;;5.90;61.50;;;;;;5028095;28;20177;-86
2021/04/16 07:19:37;;;;;;;4.63;4.23;;;5.90;61.70;;;;;;5037761;28;20176;-88
2021/04/16 07:22:07;;;;;;;4.33;3.83;;;5.90;61.70;;;;;;5038724;28;20276;-87
2021/04/16 07:24:35;;;;;;;4.40;4.00;;;5.90;62.90;;;;;;5018684;28;20251;-87
2021/04/16 07:27:15;;;;;;;6.73;3.83;;;5.90;62.10;;;;;;5051832;28;20173;-88
2021/04/16 07:29:54;;;;;;;5.97;3.90;;;5.90;62.20;;;;;;5030193;28;20264;-87
2021/04/16 07:32:37;;;;;;;5.47;3.80;;;5.90;62.60;;;;;;5045526;28;20208;-87
2021/04/16 07:35:23;;;;;;;6.10;3.83;;;5.90;62.50;;;;;;5029978;28;20567;-87
2021/04/16 07:38:14;;;;;;;4.93;4.43;;;5.60;63.10;;;;;;5037924;28;20212;-87
2021/04/16 07:40:46;;;;;;;5.10;4.60;;;5.70;63.40;;;;;;5052566;28;20322;-88
2021/04/16 07:43:33;;;;;;;5.10;4.27;;;5.80;62.80;;;;;;5045029;28;20295;-88
2021/04/16 07:45:59;;;;;;;5.03;4.37;;;5.90;62.90;;;;;;5040216;28;20221;-87
2021/04/16 07:48:32;;;;;;;4.73;4.17;;;5.90;62.90;;;;;;5015090;28;20619;-88
2021/04/16 07:51:32;;;;;;;4.40;4.00;;;6.00;62.80;;;;;;5014094;28;20194;-87
2021/04/16 07:54:14;;;;;;;4.40;4.00;;;6.00;63.40;;;;;;5032749;28;20247;-88
2021/04/16 07:56:41;;;;;;;4.50;4.03;;;5.80;63.50;;;;;;5047138;28;20211;-88
2021/04/16 07:59:10;;;;;;;4.77;4.30;;;5.90;63.90;;;;;;5050032;28;20717;-87
2021/04/16 08:01:39;;;;;;;5.20;4.60;;;5.70;64.20;;;;;;5042631;28;20177;-87
2021/04/16 08:04:24;;;;;;;4.60;4.07;;;5.70;64.50;;;;;;5042155;28;20256;-87
2021/04/16 08:06:54;;;;;;;4.43;4.00;;;5.80;64.20;;;;;;5024923;28;20248;-88
2021/04/16 08:09:25;;;;;;;4.93;4.40;;;5.90;63.60;;;;;;5045331;28;20196;-87
2021/04/16 08:12:08;;;;;;;5.63;4.40;;;6.00;63.00;;;;;;5024687;28;20319;-87
2021/04/16 08:14:38;;;;;;;4.87;3.90;;;6.00;63.10;;;;;;5034385;28;20188;-88
2021/04/16 08:17:17;;;;;;;5.10;4.13;;;6.00;63.10;;;;;;5046981;28;20184;-88
2021/04/16 08:19:43;;;;;;;5.40;3.90;;;6.10;63.60;;;;;;5036144;28;20185;-88
2021/04/16 08:22:38;;;;;;;5.30;4.30;;;6.00;63.10;;;;;;5046100;28;20236;-88
2021/04/16 08:25:13;;;;;;;5.00;4.50;;;6.20;62.90;;;;;;5032878;28;20211;-87
2021/04/16 08:27:43;;;;;;;4.27;3.80;;;6.30;62.70;;;;;;5035821;28;20170;-88
2021/04/16 08:30:09;;;;;;;4.03;3.63;;;6.50;61.80;;;;;;5016197;28;20264;-87
2021/04/16 08:32:53;;;;;;;4.47;4.07;;;6.60;61.40;;;;;;5038539;28;20204;-87
2021/04/16 08:35:29;;;;;;;4.63;4.10;;;6.60;61.10;;;;;;5042467;28;20182;-87
2021/04/16 08:38:03;;;;;;;5.20;3.90;;;6.70;61.20;;;;;;5015778;28;20192;-88
2021/04/16 08:40:34;;;;;;;7.13;4.40;;;6.80;60.80;;;;;;5047916;28;20180;-86
2021/04/16 08:43:01;;;;;;;4.10;3.70;;;6.80;60.50;;;;;;5021648;28;20219;-87
2021/04/16 08:45:31;;;;;;;5.07;4.47;;;6.80;60.20;;;;;;5050421;28;20201;-86
2021/04/16 08:48:02;;;;;;;4.93;3.90;;;7.10;60.40;;;;;;5055563;28;20204;-87
2021/04/16 08:50:32;;;;;;;5.93;4.67;;;7.20;60.20;;;;;;5044709;28;20189;-87
2021/04/16 08:53:03;;;;;;;5.57;4.33;;;7.20;59.40;;;;;;5024477;28;20726;-86
2021/04/16 08:55:44;;;;;;;5.17;4.67;;;7.30;59.60;;;;;;5041755;28;20185;-86
2021/04/16 08:58:30;;;;;;;4.93;4.27;;;7.40;58.90;;;;;;5027867;28;20199;-88
2021/04/16 09:01:07;;;;;;;4.97;4.47;;;7.40;59.00;;;;;;5033606;28;20233;-87
2021/04/16 09:03:54;;;;;;;4.77;4.30;;;7.40;58.20;;;;;;5047003;23;20236;-88
2021/04/16 09:06:39;;;;;;;5.80;4.10;;;7.40;59.00;;;;;;5043401;28;20212;-88
2021/04/16 09:09:09;;;;;;;4.73;4.13;;;7.30;59.40;;;;;;5024851;28;20204;-87
2021/04/16 09:11:41;;;;;;;5.60;4.40;;;7.30;59.30;;;;;;5038695;28;20174;-88
2021/04/16 09:14:09;;;;;;;5.40;5.00;;;7.20;59.60;;;;;;5042966;28;20240;-88
2021/04/16 09:16:37;;;;;;;7.47;4.30;;;7.40;59.20;;;;;;5040909;28;20184;-87
2021/04/16 09:19:22;;;;;;;5.13;4.63;;;7.70;58.30;;;;;;5039344;28;20198;-88
2021/04/16 09:22:03;;;;;;;6.13;4.53;;;7.80;58.00;;;;;;5034482;28;20212;-87
2021/04/16 09:24:57;;;;;;;4.77;4.27;;;8.00;57.70;;;;;;5033548;28;20201;-87
2021/04/16 09:27:25;;;;;;;5.50;4.60;;;8.20;57.30;;;;;;5036208;28;20185;-89
2021/04/16 09:30:13;;;;;;;5.27;4.67;;;8.30;56.00;;;;;;5043592;28;20216;-88
2021/04/16 09:32:52;;;;;;;4.73;4.33;;;8.20;55.70;;;;;;5028916;28;20202;-87
2021/04/16 09:35:18;;;;;;;6.67;4.70;;;8.30;55.60;;;;;;5039283;28;20193;-86
2021/04/16 09:37:48;;;;;;;5.53;4.93;;;8.40;54.90;;;;;;5039948;28;20451;-87
2021/04/16 09:40:29;;;;;;;7.43;4.80;;;8.30;55.60;;;;;;5032778;28;20185;-86
2021/04/16 09:42:55;;;;;;;5.23;4.67;;;8.30;55.60;;;;;;5019657;28;20315;-86
2021/04/16 09:45:30;;;;;;;4.70;4.30;;;8.50;54.50;;;;;;5022708;28;20225;-87
2021/04/16 09:47:57;;;;;;;5.50;4.57;;;8.40;53.80;;;;;;5038048;28;20180;-87
2021/04/16 09:50:32;;;;;;;8.43;4.67;;;8.40;54.00;;;;;;5033348;28;20174;-86
2021/04/16 09:53:31;;;;;;;4.90;4.13;;;8.50;54.60;;;;;;5036044;28;20541;-87
2021/04/16 09:55:57;;;;;;;5.93;4.40;;;8.80;53.70;;;;;;5012426;28;20276;-87
2021/04/16 09:58:32;;;;;;;4.87;4.37;;;9.20;52.20;;;;;;5033228;28;20173;-87
2021/04/16 10:01:01;;;;;;;4.77;4.00;;;9.60;51.30;;;;;;5040799;28;20181;-87
2021/04/16 10:03:33;;;;;;;5.13;4.50;;;9.80;51.10;;;;;;5042459;28;20216;-87
2021/04/16 10:06:22;;;;;;;4.90;4.50;;;9.70;50.80;;;;;;5035717;28;20205;-87
2021/04/16 10:09:12;;;;;;;5.07;4.57;;;9.30;50.80;;;;;;5016144;28;20193;-87
2021/04/16 10:11:51;;;;;;;4.67;4.23;;;9.40;50.30;;;;;;5035245;28;20192;-87
2021/04/16 10:14:30;;;;;;;4.90;4.40;;;9.20;50.60;;;;;;5028723;28;20185;-87
2021/04/16 10:17:02;;;;;;;5.20;4.10;;;9.20;50.20;;;;;;5032058;28;20177;-87
2021/04/16 10:19:37;;;;;;;6.07;4.43;;;9.10;50.30;;;;;;5016618;28;20220;-87
2021/04/16 10:22:23;;;;;;;4.13;3.73;;;9.00;51.20;;;;;;5036335;28;20201;-87
2021/04/16 10:26:14;;;;;;;4.47;4.07;;;9.20;50.00;;;;;;5030905;28;20189;-87
2021/04/16 10:55:13;;;;;;;5.10;4.70;;;9.20;50.30;;;;;;5033412;28;20217;-87
2021/04/16 10:57:05;;;;;;;5.00;4.60;;;9.20;51.10;;;;;;5014507;28;20208;-87
2021/04/16 11:10:57;;;;;;;10.50;9.50;;;9.00;50.40;;;;;;5017227;28;20259;-88
2021/04/16 12:38:59;;;;;;;4.77;4.23;;;9.70;47.50;;;;;;5015958;28;20232;-85
2021/04/16 12:41:29;;;;;;;5.30;4.60;;;9.60;47.60;;;;;;5018496;28;20200;-85
2021/04/16 12:43:58;;;;;;;5.37;4.80;;;9.70;47.80;;;;;;5016566;28;20217;-84
2021/04/16 12:48:52;;;;;;;5.93;5.33;;;9.90;48.10;;;;;;5058642;28;20217;-86
2021/04/16 12:51:18;;;;;;;4.30;3.80;;;9.90;47.80;;;;;;5043412;28;20240;-84
2021/04/16 12:53:43;;;;;;;4.93;3.83;;;10.00;46.80;;;;;;5051148;28;20177;-86
2021/04/16 12:56:14;;;;;;;4.47;4.03;;;9.90;46.70;;;;;;5053869;28;20212;-85
2021/04/16 12:58:41;;;;;;;4.10;3.80;;;9.80;46.20;;;;;;5042567;28;20184;-87
2021/04/16 13:01:14;;;;;;;5.23;3.37;;;9.70;46.20;;;;;;5060393;28;20179;-87
2021/04/16 13:03:42;;;;;;;4.60;4.20;;;9.40;46.60;;;;;;5057390;28;20181;-87
2021/04/16 13:06:32;;;;;;;16.33;8.13;;;9.40;47.00;;;;;;5057089;28;20308;-86
2021/04/16 13:08:58;;;;;;;20.50;14.97;;;9.30;47.30;;;;;;5048588;28;20174;-87
2021/04/16 13:11:26;;;;;;;7.47;6.67;;;9.20;47.90;;;;;;5060981;28;20203;-87
2021/04/16 13:13:52;;;;;;;44.77;32.90;;;9.00;48.50;;;;;;5064232;28;20184;-88
2021/04/16 13:16:18;;;;;;;13.00;11.33;;;9.00;48.80;;;;;;5035747;28;20223;-86
2021/04/16 13:18:49;;;;;;;13.03;11.20;;;8.90;49.30;;;;;;5049296;28;20177;-88
2021/04/16 13:21:37;;;;;;;37.27;30.97;;;8.90;49.00;;;;;;5040520;28;20213;-87
2021/04/16 13:24:04;;;;;;;8.93;7.70;;;8.80;49.50;;;;;;5057162;28;20168;-88
2021/04/16 13:26:30;;;;;;;37.17;20.50;;;8.80;49.30;;;;;;5038182;28;20255;-85
2021/04/16 13:28:56;;;;;;;9.90;6.63;;;8.80;48.60;;;;;;5062223;28;20204;-88
2021/04/16 13:31:25;;;;;;;9.77;7.17;;;8.80;48.90;;;;;;5065656;28;20180;-88
2021/04/16 13:33:53;;;;;;;6.53;6.07;;;9.00;48.30;;;;;;5037863;28;20181;-88
2021/04/16 13:36:25;;;;;;;4.97;4.00;;;9.20;48.00;;;;;;5036159;28;20272;-89
2021/04/16 13:38:55;;;;;;;3.73;3.40;;;9.30;48.00;;;;;;5065770;28;20203;-88
2021/04/16 13:41:24;;;;;;;5.40;3.90;;;9.30;47.60;;;;;;5061991;28;20185;-90
2021/04/16 13:43:51;;;;;;;8.80;8.10;;;9.40;47.20;;;;;;5059311;28;20273;-90
2021/04/16 13:46:23;;;;;;;2.90;2.70;;;9.40;46.70;;;;;;5058646;28;20203;-91
2021/04/16 13:48:49;;;;;;;4.57;2.90;;;9.20;46.50;;;;;;5042418;28;20226;-89
2021/04/16 13:51:18;;;;;;;3.30;2.93;;;9.00;47.40;;;;;;5059726;28;20668;-86
2021/04/16 13:53:45;;;;;;;4.00;2.90;;;9.10;47.70;;;;;;5057058;28;20177;-88
2021/04/16 13:56:11;;;;;;;3.00;2.47;;;9.00;46.70;;;;;;5050619;28;20205;-86
2021/04/16 13:58:37;;;;;;;3.23;2.50;;;9.10;46.70;;;;;;5060211;28;20160;-88
2021/04/16 14:01:06;;;;;;;2.77;2.30;;;9.20;46.40;;;;;;5039918;28;20177;-88
2021/04/16 14:03:40;;;;;;;3.27;2.60;;;9.40;46.60;;;;;;5055384;28;20176;-85
2021/04/16 14:06:19;;;;;;;2.70;2.50;;;9.30;46.20;;;;;;5041110;28;20230;-90
2021/04/16 14:08:54;;;;;;;2.53;2.33;;;9.50;46.90;;;;;;5068273;28;20184;-88
2021/04/16 14:11:21;;;;;;;3.30;3.00;;;9.50;46.10;;;;;;5060262;28;20261;-91
2021/04/16 14:13:47;;;;;;;4.13;3.30;;;9.60;46.00;;;;;;5044452;28;20204;-85
2021/04/16 14:16:35;;;;;;;3.80;2.53;;;9.60;45.30;;;;;;5052966;28;20199;-86
2021/04/16 14:19:06;;;;;;;2.27;2.07;;;9.50;45.00;;;;;;5035258;28;20267;-88
2021/04/16 14:21:39;;;;;;;2.33;2.13;;;9.40;45.20;;;;;;5036083;28;20196;-86
2021/04/16 14:24:10;;;;;;;2.63;2.43;;;9.40;45.30;;;;;;5056500;28;20184;-87
2021/04/16 14:26:36;;;;;;;2.50;2.30;;;9.50;45.00;;;;;;5033153;28;20566;-87
2021/04/16 14:29:02;;;;;;;3.70;3.40;;;9.50;45.10;;;;;;5055998;28;20275;-86
2021/04/16 14:31:28;;;;;;;2.40;2.20;;;9.50;45.40;;;;;;5058702;28;20189;-89
2021/04/16 14:33:54;;;;;;;3.53;2.67;;;9.60;44.60;;;;;;5064927;28;20190;-88
2021/04/16 14:36:20;;;;;;;5.03;2.23;;;9.50;44.60;;;;;;5051427;28;20240;-86
2021/04/16 14:38:47;;;;;;;2.43;2.23;;;9.40;45.00;;;;;;5042279;28;20229;-87
2021/04/16 14:41:19;;;;;;;2.50;2.30;;;9.40;45.50;;;;;;5038954;28;20193;-86
2021/04/16 14:43:46;;;;;;;3.20;2.90;;;9.50;45.70;;;;;;5054126;28;20184;-86
2021/04/16 14:46:12;;;;;;;2.60;2.40;;;9.50;45.80;;;;;;5065624;28;20230;-85
2021/04/16 14:48:37;;;;;;;3.17;2.40;;;9.40;45.80;;;;;;5040456;28;20207;-84
2021/04/16 14:51:08;;;;;;;3.60;2.10;;;9.20;45.70;;;;;;5020870;28;20189;-83
2021/04/16 14:53:44;;;;;;;4.00;2.37;;;9.10;46.30;;;;;;5043106;28;20190;-86
2021/04/16 14:56:13;;;;;;;5.30;4.20;;;9.00;46.20;;;;;;5036789;28;20747;-85
2021/04/16 14:59:03;;;;;;;6.50;5.00;;;9.10;46.60;;;;;;5055276;28;20192;-89
2021/04/16 15:01:30;;;;;;;4.37;3.97;;;9.20;46.20;;;;;;5059116;28;20176;-85
2021/04/16 15:03:57;;;;;;;3.80;2.40;;;9.30;46.80;;;;;;5055256;28;20180;-88
2021/04/16 15:06:28;;;;;;;2.50;2.30;;;9.10;46.30;;;;;;5033824;28;20209;-86
2021/04/16 15:09:08;;;;;;;3.30;2.20;;;9.10;46.50;;;;;;5042894;28;20230;-86
2021/04/16 15:11:54;;;;;;;2.20;2.10;;;9.10;46.70;;;;;;5058349;28;20295;-87
2021/04/16 15:14:26;;;;;;;2.20;2.00;;;9.00;46.60;;;;;;5064183;28;20336;-86
2021/04/16 15:16:53;;;;;;;2.40;2.20;;;8.90;47.20;;;;;;5063065;28;20201;-89
2021/04/16 15:19:31;;;;;;;2.10;2.00;;;8.90;47.70;;;;;;5051850;28;20161;-88